EZY48TM EGGD-LXGB
Flight info
| Callsign | EZY48TM |
|---|---|
| Flight time | 2h 25m |
| Altitude | 35000 |
| Route | EXMOR N92 DAWLY N864 BHD DCT SALCO DCT NOVAN DCT DELOG DCT CRISA DCT VULPE DCT MAR N864 PIMOS |
| Aircraft | A320/M-SDE2E3FGHIJ1RWXYZ/LB1 |
Departure
| Time | 2026-05-04 18:55 |
|---|---|
| Airport | Bristol Airport (EGGD) |
Arrival
| Time | 2026-05-04 21:21 |
|---|---|
| Airport | Gibraltar Airport (LXGB) |
| Time | Latitude | Longitude | Altitude | Speed | Heading |
|---|---|---|---|---|---|
| 2026-05-04 18:12 | 51.38547 | -2.71021 | 597 ft | 0 kts | 356° |
| 2026-05-04 18:46 | 51.38533 | -2.71020 | 597 ft | 2 kts | 356° |
| 2026-05-04 18:46 | 51.38519 | -2.71019 | 598 ft | 2 kts | 356° |
| 2026-05-04 18:47 | 51.38516 | -2.71018 | 598 ft | 0 kts | 356° |
| 2026-05-04 18:47 | 51.38501 | -2.71017 | 599 ft | 2 kts | 356° |
| 2026-05-04 18:47 | 51.38490 | -2.71016 | 599 ft | 1 kts | 356° |
| 2026-05-04 18:48 | 51.38476 | -2.71010 | 600 ft | 2 kts | 325° |
| 2026-05-04 18:48 | 51.38465 | -2.70993 | 600 ft | 2 kts | 296° |
| 2026-05-04 18:48 | 51.38461 | -2.70972 | 600 ft | 0 kts | 270° |
| 2026-05-04 18:48 | 51.38462 | -2.70961 | 600 ft | 1 kts | 265° |
| 2026-05-04 18:49 | 51.38462 | -2.70959 | 600 ft | 0 kts | 265° |
| 2026-05-04 18:50 | 51.38462 | -2.70961 | 600 ft | 0 kts | 265° |
| 2026-05-04 18:50 | 51.38461 | -2.70976 | 600 ft | 1 kts | 265° |
| 2026-05-04 18:51 | 51.38460 | -2.71009 | 600 ft | 3 kts | 266° |
| 2026-05-04 18:51 | 51.38458 | -2.71059 | 600 ft | 5 kts | 266° |
| 2026-05-04 18:51 | 51.38455 | -2.71128 | 600 ft | 7 kts | 266° |
| 2026-05-04 18:51 | 51.38452 | -2.71220 | 599 ft | 9 kts | 266° |
| 2026-05-04 18:52 | 51.38447 | -2.71356 | 598 ft | 13 kts | 266° |
| 2026-05-04 18:52 | 51.38442 | -2.71517 | 598 ft | 14 kts | 267° |
| 2026-05-04 18:52 | 51.38435 | -2.71679 | 601 ft | 14 kts | 266° |
| 2026-05-04 18:52 | 51.38430 | -2.71842 | 604 ft | 13 kts | 268° |
| 2026-05-04 18:53 | 51.38430 | -2.72003 | 604 ft | 14 kts | 269° |
| 2026-05-04 18:53 | 51.38425 | -2.72161 | 607 ft | 13 kts | 266° |
| 2026-05-04 18:53 | 51.38418 | -2.72340 | 611 ft | 17 kts | 266° |
| 2026-05-04 18:53 | 51.38411 | -2.72535 | 612 ft | 17 kts | 266° |
| 2026-05-04 18:54 | 51.38404 | -2.72728 | 612 ft | 17 kts | 265° |
| 2026-05-04 18:54 | 51.38395 | -2.72939 | 607 ft | 20 kts | 266° |
| 2026-05-04 18:54 | 51.38387 | -2.73185 | 600 ft | 23 kts | 265° |
| 2026-05-04 18:54 | 51.38277 | -2.73343 | 595 ft | 23 kts | 169° |
| 2026-05-04 18:55 | 51.38223 | -2.73142 | 605 ft | 33 kts | 82° |
| 2026-05-04 18:55 | 51.38313 | -2.70894 | 645 ft | 153 kts | 84° |
| 2026-05-04 18:55 | 51.38352 | -2.69247 | 1368 ft | 141 kts | 89° |
| 2026-05-04 18:56 | 51.38389 | -2.67640 | 1941 ft | 145 kts | 87° |
| 2026-05-04 18:56 | 51.38448 | -2.66005 | 2506 ft | 148 kts | 88° |
| 2026-05-04 18:56 | 51.38510 | -2.64239 | 2861 ft | 164 kts | 88° |
| 2026-05-04 18:56 | 51.38573 | -2.62286 | 3197 ft | 182 kts | 89° |
| 2026-05-04 18:57 | 51.38561 | -2.60157 | 3561 ft | 200 kts | 105° |
| 2026-05-04 18:57 | 51.37748 | -2.58233 | 3870 ft | 222 kts | 147° |
| 2026-05-04 18:57 | 51.36189 | -2.57639 | 4305 ft | 246 kts | 185° |
| 2026-05-04 18:57 | 51.34577 | -2.58856 | 4872 ft | 268 kts | 222° |
| 2026-05-04 18:58 | 51.33645 | -2.61473 | 5784 ft | 276 kts | 249° |
| 2026-05-04 18:58 | 51.33178 | -2.64477 | 6808 ft | 274 kts | 252° |
| 2026-05-04 18:58 | 51.32747 | -2.67403 | 7746 ft | 272 kts | 251° |
| 2026-05-04 18:58 | 51.32252 | -2.70317 | 8719 ft | 269 kts | 249° |
| 2026-05-04 18:59 | 51.31709 | -2.73176 | 9691 ft | 266 kts | 249° |
| 2026-05-04 18:59 | 51.31144 | -2.75956 | 10587 ft | 265 kts | 249° |
| 2026-05-04 18:59 | 51.30532 | -2.78865 | 11078 ft | 279 kts | 250° |
| 2026-05-04 18:59 | 51.29771 | -2.81824 | 11399 ft | 297 kts | 237° |
| 2026-05-04 19:00 | 51.28196 | -2.84167 | 11706 ft | 321 kts | 212° |
| 2026-05-04 19:00 | 51.25988 | -2.85417 | 12063 ft | 342 kts | 200° |
| 2026-05-04 19:00 | 51.23651 | -2.86425 | 12626 ft | 350 kts | 200° |
| 2026-05-04 19:00 | 51.21254 | -2.87472 | 13364 ft | 352 kts | 200° |
| 2026-05-04 19:01 | 51.18894 | -2.88517 | 14093 ft | 354 kts | 201° |
| 2026-05-04 19:01 | 51.16500 | -2.89591 | 14805 ft | 356 kts | 201° |
| 2026-05-04 19:01 | 51.14096 | -2.90678 | 15504 ft | 357 kts | 201° |
| 2026-05-04 19:01 | 51.11666 | -2.91781 | 16192 ft | 359 kts | 202° |
| 2026-05-04 19:02 | 51.09253 | -2.92879 | 16857 ft | 361 kts | 202° |
| 2026-05-04 19:02 | 51.06782 | -2.94004 | 17515 ft | 362 kts | 202° |
| 2026-05-04 19:02 | 51.05180 | -2.94734 | 17932 ft | 364 kts | 202° |
| 2026-05-04 19:02 | 51.02923 | -2.95762 | 18505 ft | 365 kts | 203° |
| 2026-05-04 19:03 | 51.01085 | -2.96599 | 18947 ft | 367 kts | 203° |
| 2026-05-04 19:03 | 50.98594 | -2.97733 | 19508 ft | 369 kts | 203° |
| 2026-05-04 19:03 | 50.97399 | -2.98277 | 19769 ft | 371 kts | 203° |
| 2026-05-04 19:03 | 50.95566 | -2.99110 | 20163 ft | 373 kts | 203° |
| 2026-05-04 19:04 | 50.93075 | -3.00241 | 20686 ft | 375 kts | 204° |
| 2026-05-04 19:04 | 50.90532 | -3.01394 | 21204 ft | 378 kts | 204° |
| 2026-05-04 19:04 | 50.88024 | -3.02526 | 21705 ft | 381 kts | 204° |
| 2026-05-04 19:04 | 50.85440 | -3.03685 | 22220 ft | 383 kts | 204° |
| 2026-05-04 19:05 | 50.82869 | -3.04838 | 22731 ft | 384 kts | 204° |
| 2026-05-04 19:05 | 50.80243 | -3.05908 | 23229 ft | 392 kts | 199° |
| 2026-05-04 19:05 | 50.77507 | -3.06451 | 23723 ft | 398 kts | 195° |
| 2026-05-04 19:05 | 50.74650 | -3.06834 | 24207 ft | 401 kts | 194° |
| 2026-05-04 19:06 | 50.71829 | -3.07203 | 24650 ft | 402 kts | 194° |
| 2026-05-04 19:06 | 50.69013 | -3.07590 | 25078 ft | 404 kts | 195° |
| 2026-05-04 19:06 | 50.66167 | -3.07998 | 25495 ft | 405 kts | 195° |
| 2026-05-04 19:06 | 50.63282 | -3.08424 | 25902 ft | 406 kts | 195° |
| 2026-05-04 19:07 | 50.60449 | -3.08850 | 26290 ft | 408 kts | 196° |
| 2026-05-04 19:07 | 50.57555 | -3.09290 | 26661 ft | 409 kts | 196° |
| 2026-05-04 19:07 | 50.54694 | -3.09728 | 27007 ft | 410 kts | 196° |
| 2026-05-04 19:07 | 50.51792 | -3.10175 | 27340 ft | 411 kts | 196° |
| 2026-05-04 19:08 | 50.48904 | -3.10619 | 27657 ft | 413 kts | 196° |
| 2026-05-04 19:08 | 50.45975 | -3.11071 | 27972 ft | 413 kts | 196° |
| 2026-05-04 19:08 | 50.43092 | -3.11513 | 28372 ft | 412 kts | 197° |
| 2026-05-04 19:08 | 50.40195 | -3.11955 | 28820 ft | 409 kts | 197° |
| 2026-05-04 19:09 | 50.37332 | -3.12392 | 29252 ft | 407 kts | 197° |
| 2026-05-04 19:09 | 50.34473 | -3.12829 | 29662 ft | 405 kts | 197° |
| 2026-05-04 19:09 | 50.31623 | -3.13267 | 30058 ft | 403 kts | 198° |
| 2026-05-04 19:09 | 50.28816 | -3.13698 | 30441 ft | 401 kts | 198° |
| 2026-05-04 19:10 | 50.25991 | -3.14132 | 30822 ft | 399 kts | 198° |
| 2026-05-04 19:10 | 50.23211 | -3.14558 | 31192 ft | 397 kts | 198° |
| 2026-05-04 19:10 | 50.20422 | -3.14985 | 31554 ft | 396 kts | 198° |
| 2026-05-04 19:10 | 50.17638 | -3.15411 | 31903 ft | 394 kts | 198° |
| 2026-05-04 19:11 | 50.14855 | -3.15837 | 32240 ft | 392 kts | 199° |
| 2026-05-04 19:11 | 50.12076 | -3.16262 | 32565 ft | 391 kts | 199° |
| 2026-05-04 19:11 | 50.09333 | -3.16680 | 32875 ft | 389 kts | 199° |
| 2026-05-04 19:11 | 50.06575 | -3.17101 | 33174 ft | 388 kts | 199° |
| 2026-05-04 19:12 | 50.03866 | -3.17515 | 33428 ft | 387 kts | 199° |
| 2026-05-04 19:12 | 49.98362 | -3.18357 | 33831 ft | 388 kts | 199° |
| 2026-05-04 19:12 | 49.95618 | -3.18776 | 34018 ft | 388 kts | 199° |
| 2026-05-04 19:13 | 49.92889 | -3.19192 | 34194 ft | 389 kts | 199° |
| 2026-05-04 19:13 | 49.90244 | -3.19594 | 34347 ft | 389 kts | 199° |
| 2026-05-04 19:13 | 49.87551 | -3.19998 | 34506 ft | 390 kts | 199° |
| 2026-05-04 19:13 | 49.84819 | -3.20404 | 34666 ft | 391 kts | 199° |
| 2026-05-04 19:14 | 49.82060 | -3.20815 | 34816 ft | 391 kts | 199° |
| 2026-05-04 19:14 | 49.79328 | -3.21223 | 34953 ft | 392 kts | 199° |
| 2026-05-04 19:14 | 49.76551 | -3.21638 | 34965 ft | 393 kts | 199° |
| 2026-05-04 19:15 | 49.71001 | -3.22466 | 34976 ft | 393 kts | 199° |
| 2026-05-04 19:15 | 49.65502 | -3.23286 | 34978 ft | 393 kts | 199° |
| 2026-05-04 19:16 | 49.59971 | -3.24111 | 34978 ft | 393 kts | 199° |
| 2026-05-04 19:16 | 49.54425 | -3.24938 | 34979 ft | 393 kts | 199° |
| 2026-05-04 19:17 | 49.48896 | -3.25759 | 34981 ft | 393 kts | 199° |
| 2026-05-04 19:17 | 49.43347 | -3.26583 | 34986 ft | 393 kts | 199° |
| 2026-05-04 19:18 | 49.37926 | -3.27386 | 34990 ft | 393 kts | 199° |
| 2026-05-04 19:18 | 49.32417 | -3.28200 | 34993 ft | 393 kts | 199° |
| 2026-05-04 19:19 | 49.26891 | -3.29014 | 34994 ft | 393 kts | 199° |
| 2026-05-04 19:19 | 49.21403 | -3.29822 | 34996 ft | 393 kts | 199° |
| 2026-05-04 19:20 | 49.15891 | -3.30631 | 34999 ft | 393 kts | 199° |
| 2026-05-04 19:20 | 49.10388 | -3.31438 | 34999 ft | 393 kts | 199° |
| 2026-05-04 19:21 | 49.05185 | -3.32211 | 34998 ft | 400 kts | 199° |
| 2026-05-04 19:21 | 48.99544 | -3.33045 | 34998 ft | 408 kts | 198° |
| 2026-05-04 19:22 | 48.93810 | -3.33884 | 35001 ft | 416 kts | 197° |
| 2026-05-04 19:22 | 48.87982 | -3.34716 | 35004 ft | 419 kts | 197° |
| 2026-05-04 19:23 | 48.82127 | -3.35539 | 35003 ft | 418 kts | 197° |
| 2026-05-04 19:23 | 48.76309 | -3.36366 | 35003 ft | 418 kts | 197° |
| 2026-05-04 19:24 | 48.70446 | -3.37204 | 35003 ft | 418 kts | 197° |
| 2026-05-04 19:24 | 48.64619 | -3.38040 | 35003 ft | 418 kts | 197° |
| 2026-05-04 19:25 | 48.58794 | -3.38874 | 35003 ft | 418 kts | 197° |
| 2026-05-04 19:25 | 48.52935 | -3.39711 | 35004 ft | 418 kts | 197° |
| 2026-05-04 19:26 | 48.47095 | -3.40544 | 35002 ft | 418 kts | 197° |
| 2026-05-04 19:26 | 48.41245 | -3.41377 | 35000 ft | 418 kts | 197° |
| 2026-05-04 19:27 | 48.35464 | -3.42198 | 34999 ft | 418 kts | 197° |
| 2026-05-04 19:27 | 48.29620 | -3.43027 | 34999 ft | 418 kts | 197° |
| 2026-05-04 19:28 | 48.23816 | -3.43847 | 34997 ft | 418 kts | 197° |
| 2026-05-04 19:28 | 48.18076 | -3.44658 | 34994 ft | 418 kts | 197° |
| 2026-05-04 19:29 | 48.12245 | -3.45478 | 34989 ft | 418 kts | 197° |
| 2026-05-04 19:29 | 48.06462 | -3.46290 | 34987 ft | 418 kts | 197° |
| 2026-05-04 19:30 | 48.00596 | -3.47113 | 34986 ft | 418 kts | 197° |
| 2026-05-04 19:30 | 47.94787 | -3.47925 | 34986 ft | 418 kts | 197° |
| 2026-05-04 19:31 | 47.88972 | -3.48736 | 34987 ft | 418 kts | 197° |
| 2026-05-04 19:31 | 47.83178 | -3.49530 | 34986 ft | 418 kts | 197° |
| 2026-05-04 19:32 | 47.77357 | -3.50330 | 34985 ft | 418 kts | 197° |
| 2026-05-04 19:32 | 47.71521 | -3.51136 | 34986 ft | 418 kts | 197° |
| 2026-05-04 19:33 | 47.65695 | -3.51942 | 34986 ft | 419 kts | 197° |
| 2026-05-04 19:33 | 47.59869 | -3.52745 | 34985 ft | 418 kts | 197° |
| 2026-05-04 19:34 | 47.54027 | -3.53550 | 34985 ft | 419 kts | 197° |
| 2026-05-04 19:34 | 47.48193 | -3.54351 | 34985 ft | 418 kts | 197° |
| 2026-05-04 19:35 | 47.42347 | -3.55153 | 34986 ft | 418 kts | 197° |
| 2026-05-04 19:35 | 47.36517 | -3.55950 | 34985 ft | 418 kts | 197° |
| 2026-05-04 19:36 | 47.30698 | -3.56744 | 34985 ft | 419 kts | 197° |
| 2026-05-04 19:36 | 47.24887 | -3.57535 | 34986 ft | 418 kts | 197° |
| 2026-05-04 19:37 | 47.19078 | -3.58323 | 34986 ft | 418 kts | 197° |
| 2026-05-04 19:37 | 47.13193 | -3.59122 | 34985 ft | 418 kts | 197° |
| 2026-05-04 19:38 | 47.07384 | -3.59907 | 34986 ft | 418 kts | 197° |
| 2026-05-04 19:38 | 47.01516 | -3.60700 | 34983 ft | 419 kts | 197° |
| 2026-05-04 19:39 | 46.95610 | -3.61512 | 34980 ft | 425 kts | 195° |
| 2026-05-04 19:39 | 46.89652 | -3.62323 | 34982 ft | 432 kts | 194° |
| 2026-05-04 19:40 | 46.83584 | -3.63119 | 34985 ft | 437 kts | 194° |
| 2026-05-04 19:40 | 46.77485 | -3.63913 | 34985 ft | 437 kts | 194° |
| 2026-05-04 19:41 | 46.71352 | -3.64722 | 34986 ft | 437 kts | 194° |
| 2026-05-04 19:41 | 46.65252 | -3.65544 | 34986 ft | 438 kts | 193° |
| 2026-05-04 19:42 | 46.59308 | -3.66357 | 34986 ft | 438 kts | 193° |
| 2026-05-04 19:42 | 46.53222 | -3.67171 | 34986 ft | 439 kts | 193° |
| 2026-05-04 19:43 | 46.47078 | -3.67983 | 34984 ft | 438 kts | 193° |
| 2026-05-04 19:43 | 46.40943 | -3.68791 | 34985 ft | 438 kts | 193° |
| 2026-05-04 19:44 | 46.34760 | -3.69602 | 34986 ft | 438 kts | 193° |
| 2026-05-04 19:44 | 46.28625 | -3.70453 | 34985 ft | 437 kts | 194° |
| 2026-05-04 19:45 | 46.22496 | -3.71387 | 34985 ft | 437 kts | 194° |
| 2026-05-04 19:45 | 46.16406 | -3.72307 | 34985 ft | 437 kts | 194° |
| 2026-05-04 19:46 | 46.10323 | -3.73217 | 34985 ft | 437 kts | 194° |
| 2026-05-04 19:46 | 46.04168 | -3.74134 | 34986 ft | 437 kts | 194° |
| 2026-05-04 19:47 | 45.98068 | -3.75040 | 34985 ft | 437 kts | 194° |
| 2026-05-04 19:47 | 45.91913 | -3.75951 | 34985 ft | 438 kts | 194° |
| 2026-05-04 19:48 | 45.85794 | -3.76851 | 34986 ft | 438 kts | 194° |
| 2026-05-04 19:48 | 45.79686 | -3.77744 | 34986 ft | 437 kts | 194° |
| 2026-05-04 19:49 | 45.73584 | -3.78637 | 34985 ft | 437 kts | 194° |
| 2026-05-04 19:49 | 45.67440 | -3.79536 | 34986 ft | 438 kts | 194° |
| 2026-05-04 19:50 | 45.61622 | -3.80387 | 34990 ft | 438 kts | 194° |
| 2026-05-04 19:50 | 45.55489 | -3.81282 | 34996 ft | 437 kts | 194° |
| 2026-05-04 19:51 | 45.49361 | -3.82173 | 34999 ft | 437 kts | 194° |
| 2026-05-04 19:51 | 45.43192 | -3.83071 | 35001 ft | 437 kts | 194° |
| 2026-05-04 19:52 | 45.37114 | -3.83952 | 35003 ft | 437 kts | 194° |
| 2026-05-04 19:52 | 45.30934 | -3.84848 | 35003 ft | 437 kts | 194° |
| 2026-05-04 19:53 | 45.24799 | -3.85734 | 35003 ft | 438 kts | 194° |
| 2026-05-04 19:53 | 45.18711 | -3.86610 | 35003 ft | 437 kts | 194° |
| 2026-05-04 19:54 | 45.12575 | -3.87493 | 35002 ft | 437 kts | 194° |
| 2026-05-04 19:54 | 45.06456 | -3.88372 | 35004 ft | 437 kts | 194° |
| 2026-05-04 19:55 | 45.00782 | -3.89186 | 35003 ft | 436 kts | 193° |
| 2026-05-04 19:55 | 44.94559 | -3.90075 | 35004 ft | 436 kts | 193° |
| 2026-05-04 19:56 | 44.88612 | -3.90920 | 35010 ft | 435 kts | 193° |
| 2026-05-04 19:56 | 44.82417 | -3.91790 | 35021 ft | 435 kts | 193° |
| 2026-05-04 19:57 | 44.76324 | -3.92650 | 35026 ft | 435 kts | 193° |
| 2026-05-04 19:57 | 44.70221 | -3.93513 | 35030 ft | 435 kts | 193° |
| 2026-05-04 19:58 | 44.64111 | -3.94376 | 35031 ft | 435 kts | 193° |
| 2026-05-04 19:58 | 44.58517 | -3.95166 | 35031 ft | 435 kts | 193° |
| 2026-05-04 19:59 | 44.52623 | -3.95995 | 35031 ft | 435 kts | 193° |
| 2026-05-04 19:59 | 44.46543 | -3.96849 | 35031 ft | 434 kts | 193° |
| 2026-05-04 20:00 | 44.40439 | -3.97704 | 35031 ft | 434 kts | 193° |
| 2026-05-04 20:00 | 44.34385 | -3.98550 | 35031 ft | 435 kts | 193° |
| 2026-05-04 20:01 | 44.28287 | -3.99323 | 35031 ft | 435 kts | 192° |
| 2026-05-04 20:01 | 44.22241 | -4.00010 | 35030 ft | 436 kts | 192° |
| 2026-05-04 20:02 | 44.16078 | -4.00710 | 35032 ft | 436 kts | 192° |
| 2026-05-04 20:02 | 44.09916 | -4.01412 | 35032 ft | 436 kts | 192° |
| 2026-05-04 20:03 | 44.03813 | -4.02107 | 35032 ft | 435 kts | 192° |
| 2026-05-04 20:03 | 43.97675 | -4.02806 | 35031 ft | 436 kts | 192° |
| 2026-05-04 20:04 | 43.91598 | -4.03497 | 35032 ft | 436 kts | 192° |
| 2026-05-04 20:04 | 43.85535 | -4.04179 | 35031 ft | 436 kts | 192° |
| 2026-05-04 20:05 | 43.79441 | -4.04861 | 35031 ft | 436 kts | 192° |
| 2026-05-04 20:05 | 43.73341 | -4.05546 | 35031 ft | 436 kts | 192° |
| 2026-05-04 20:06 | 43.67306 | -4.06223 | 35031 ft | 435 kts | 192° |
| 2026-05-04 20:06 | 43.61240 | -4.06903 | 35031 ft | 436 kts | 192° |
| 2026-05-04 20:07 | 43.55200 | -4.07581 | 35031 ft | 435 kts | 192° |
| 2026-05-04 20:07 | 43.49161 | -4.08256 | 35032 ft | 436 kts | 192° |
| 2026-05-04 20:08 | 43.43169 | -4.08926 | 35032 ft | 436 kts | 192° |
| 2026-05-04 20:08 | 43.37101 | -4.09602 | 35031 ft | 436 kts | 192° |
| 2026-05-04 20:09 | 43.31033 | -4.10278 | 35031 ft | 436 kts | 192° |
| 2026-05-04 20:09 | 43.25041 | -4.10943 | 35031 ft | 436 kts | 192° |
| 2026-05-04 20:10 | 43.18980 | -4.11615 | 35031 ft | 436 kts | 192° |
| 2026-05-04 20:10 | 43.12892 | -4.12289 | 35031 ft | 436 kts | 192° |
| 2026-05-04 20:11 | 43.06821 | -4.12959 | 35031 ft | 436 kts | 192° |
| 2026-05-04 20:11 | 43.00785 | -4.13628 | 35030 ft | 436 kts | 192° |
| 2026-05-04 20:12 | 42.94687 | -4.14311 | 35030 ft | 437 kts | 191° |
| 2026-05-04 20:12 | 42.88574 | -4.14987 | 35031 ft | 440 kts | 189° |
| 2026-05-04 20:13 | 42.82462 | -4.15644 | 35030 ft | 441 kts | 189° |
| 2026-05-04 20:13 | 42.76282 | -4.16305 | 35020 ft | 441 kts | 189° |
| 2026-05-04 20:14 | 42.70070 | -4.16977 | 35004 ft | 441 kts | 189° |
| 2026-05-04 20:14 | 42.63923 | -4.17644 | 34990 ft | 442 kts | 189° |
| 2026-05-04 20:15 | 42.57706 | -4.18319 | 34983 ft | 442 kts | 189° |
| 2026-05-04 20:15 | 42.51522 | -4.18989 | 34980 ft | 442 kts | 189° |
| 2026-05-04 20:16 | 42.45330 | -4.19659 | 34979 ft | 442 kts | 189° |
| 2026-05-04 20:16 | 42.39136 | -4.20328 | 34979 ft | 442 kts | 189° |
| 2026-05-04 20:17 | 42.32912 | -4.20999 | 34979 ft | 442 kts | 189° |
| 2026-05-04 20:17 | 42.26718 | -4.21665 | 34979 ft | 442 kts | 189° |
| 2026-05-04 20:18 | 42.20549 | -4.22328 | 34979 ft | 442 kts | 189° |
| 2026-05-04 20:18 | 42.14319 | -4.22995 | 34979 ft | 442 kts | 189° |
| 2026-05-04 20:19 | 42.08125 | -4.23658 | 34979 ft | 442 kts | 189° |
| 2026-05-04 20:19 | 42.01945 | -4.24317 | 34979 ft | 442 kts | 189° |
| 2026-05-04 20:20 | 41.95728 | -4.24980 | 34979 ft | 442 kts | 189° |
| 2026-05-04 20:20 | 41.89521 | -4.25640 | 34979 ft | 442 kts | 189° |
| 2026-05-04 20:21 | 41.83320 | -4.26291 | 34979 ft | 442 kts | 189° |
| 2026-05-04 20:21 | 41.74050 | -4.27266 | 34978 ft | 442 kts | 189° |
| 2026-05-04 20:22 | 41.67893 | -4.27916 | 34979 ft | 442 kts | 189° |
| 2026-05-04 20:22 | 41.61690 | -4.28569 | 34979 ft | 442 kts | 189° |
| 2026-05-04 20:23 | 41.55503 | -4.29220 | 34979 ft | 442 kts | 189° |
| 2026-05-04 20:23 | 41.49304 | -4.29870 | 34979 ft | 442 kts | 189° |
| 2026-05-04 20:24 | 41.43087 | -4.30522 | 34978 ft | 442 kts | 189° |
| 2026-05-04 20:24 | 41.36914 | -4.31168 | 34979 ft | 442 kts | 189° |
| 2026-05-04 20:25 | 41.30714 | -4.31815 | 34978 ft | 442 kts | 189° |
| 2026-05-04 20:25 | 41.24540 | -4.32458 | 34979 ft | 442 kts | 189° |
| 2026-05-04 20:26 | 41.18361 | -4.33101 | 34979 ft | 442 kts | 189° |
| 2026-05-04 20:26 | 41.12168 | -4.33744 | 34979 ft | 442 kts | 189° |
| 2026-05-04 20:27 | 41.06095 | -4.34386 | 34979 ft | 440 kts | 188° |
| 2026-05-04 20:27 | 40.99937 | -4.35034 | 34978 ft | 441 kts | 186° |
| 2026-05-04 20:28 | 40.93766 | -4.35670 | 34978 ft | 444 kts | 186° |
| 2026-05-04 20:28 | 40.87593 | -4.36291 | 34979 ft | 445 kts | 185° |
| 2026-05-04 20:29 | 40.81379 | -4.36917 | 34979 ft | 445 kts | 186° |
| 2026-05-04 20:29 | 40.75134 | -4.37553 | 34979 ft | 445 kts | 186° |
| 2026-05-04 20:30 | 40.68934 | -4.38186 | 34979 ft | 445 kts | 186° |
| 2026-05-04 20:30 | 40.62732 | -4.38819 | 34978 ft | 445 kts | 186° |
| 2026-05-04 20:31 | 40.56511 | -4.39453 | 34979 ft | 445 kts | 186° |
| 2026-05-04 20:31 | 40.50328 | -4.40083 | 34979 ft | 445 kts | 186° |
| 2026-05-04 20:32 | 40.44108 | -4.40715 | 34979 ft | 445 kts | 186° |
| 2026-05-04 20:32 | 40.37868 | -4.41348 | 34979 ft | 445 kts | 186° |
| 2026-05-04 20:33 | 40.31680 | -4.41975 | 34979 ft | 445 kts | 186° |
| 2026-05-04 20:33 | 40.25384 | -4.42611 | 34979 ft | 445 kts | 186° |
| 2026-05-04 20:34 | 40.19253 | -4.43230 | 34979 ft | 445 kts | 186° |
| 2026-05-04 20:34 | 40.13132 | -4.43846 | 34979 ft | 445 kts | 186° |
| 2026-05-04 20:35 | 40.06963 | -4.44466 | 34979 ft | 445 kts | 186° |
| 2026-05-04 20:35 | 40.00760 | -4.45088 | 34979 ft | 445 kts | 186° |
| 2026-05-04 20:36 | 39.94617 | -4.45704 | 34979 ft | 445 kts | 186° |
| 2026-05-04 20:36 | 39.88791 | -4.46286 | 34980 ft | 445 kts | 186° |
| 2026-05-04 20:37 | 39.82664 | -4.46893 | 34979 ft | 445 kts | 186° |
| 2026-05-04 20:37 | 39.76586 | -4.47496 | 34979 ft | 445 kts | 186° |
| 2026-05-04 20:38 | 39.70531 | -4.48097 | 34979 ft | 445 kts | 186° |
| 2026-05-04 20:38 | 39.64957 | -4.48650 | 34979 ft | 445 kts | 186° |
| 2026-05-04 20:39 | 39.59947 | -4.49147 | 34979 ft | 445 kts | 186° |
| 2026-05-04 20:39 | 39.54174 | -4.49718 | 34979 ft | 445 kts | 186° |
| 2026-05-04 20:40 | 39.47405 | -4.50387 | 34979 ft | 445 kts | 186° |
| 2026-05-04 20:40 | 39.41188 | -4.51000 | 34979 ft | 445 kts | 186° |
| 2026-05-04 20:41 | 39.34983 | -4.51612 | 34979 ft | 445 kts | 186° |
| 2026-05-04 20:41 | 39.28785 | -4.52222 | 34979 ft | 445 kts | 186° |
| 2026-05-04 20:42 | 39.22550 | -4.52834 | 34979 ft | 445 kts | 186° |
| 2026-05-04 20:42 | 39.16322 | -4.53444 | 34979 ft | 445 kts | 186° |
| 2026-05-04 20:43 | 39.10099 | -4.54052 | 34979 ft | 445 kts | 186° |
| 2026-05-04 20:43 | 39.03846 | -4.54663 | 34979 ft | 445 kts | 186° |
| 2026-05-04 20:44 | 38.97662 | -4.55274 | 34981 ft | 440 kts | 184° |
| 2026-05-04 20:44 | 38.91548 | -4.56151 | 34981 ft | 437 kts | 187° |
| 2026-05-04 20:45 | 38.85526 | -4.57410 | 34978 ft | 442 kts | 186° |
| 2026-05-04 20:45 | 38.79370 | -4.58664 | 34978 ft | 443 kts | 186° |
| 2026-05-04 20:46 | 38.73227 | -4.59928 | 34978 ft | 444 kts | 186° |
| 2026-05-04 20:46 | 38.67103 | -4.61195 | 34979 ft | 443 kts | 186° |
| 2026-05-04 20:47 | 38.60947 | -4.62470 | 34979 ft | 444 kts | 186° |
| 2026-05-04 20:47 | 38.54838 | -4.63733 | 34979 ft | 444 kts | 186° |
| 2026-05-04 20:48 | 38.48695 | -4.65001 | 34979 ft | 443 kts | 186° |
| 2026-05-04 20:48 | 38.42521 | -4.66299 | 34978 ft | 443 kts | 185° |
| 2026-05-04 20:49 | 38.36383 | -4.67582 | 34978 ft | 443 kts | 185° |
| 2026-05-04 20:49 | 38.30269 | -4.68846 | 34978 ft | 443 kts | 185° |
| 2026-05-04 20:50 | 38.24124 | -4.70108 | 34978 ft | 443 kts | 185° |
| 2026-05-04 20:50 | 38.18017 | -4.71357 | 34978 ft | 443 kts | 185° |
| 2026-05-04 20:51 | 38.11869 | -4.72613 | 34978 ft | 443 kts | 185° |
| 2026-05-04 20:51 | 38.05708 | -4.73869 | 34978 ft | 443 kts | 185° |
| 2026-05-04 20:52 | 37.99574 | -4.75117 | 34978 ft | 443 kts | 185° |
| 2026-05-04 20:52 | 37.95231 | -4.75999 | 34978 ft | 443 kts | 185° |
| 2026-05-04 20:53 | 37.89083 | -4.77245 | 34979 ft | 443 kts | 185° |
| 2026-05-04 20:53 | 37.82989 | -4.78474 | 34979 ft | 443 kts | 185° |
| 2026-05-04 20:54 | 37.76853 | -4.79713 | 34978 ft | 443 kts | 185° |
| 2026-05-04 20:54 | 37.70756 | -4.80950 | 34972 ft | 442 kts | 185° |
| 2026-05-04 20:55 | 37.67702 | -4.81571 | 34755 ft | 438 kts | 185° |
| 2026-05-04 20:55 | 37.64697 | -4.82180 | 34090 ft | 439 kts | 185° |
| 2026-05-04 20:55 | 37.61638 | -4.82795 | 33142 ft | 444 kts | 185° |
| 2026-05-04 20:55 | 37.58583 | -4.83406 | 32197 ft | 448 kts | 186° |
| 2026-05-04 20:56 | 37.55467 | -4.84031 | 31293 ft | 450 kts | 186° |
| 2026-05-04 20:56 | 37.52352 | -4.84656 | 30387 ft | 451 kts | 186° |
| 2026-05-04 20:56 | 37.49211 | -4.85286 | 29434 ft | 453 kts | 186° |
| 2026-05-04 20:56 | 37.46064 | -4.85918 | 28436 ft | 455 kts | 186° |
| 2026-05-04 20:57 | 37.42880 | -4.86556 | 27384 ft | 457 kts | 187° |
| 2026-05-04 20:57 | 37.39746 | -4.87184 | 26621 ft | 453 kts | 187° |
| 2026-05-04 20:57 | 37.36624 | -4.87811 | 26022 ft | 446 kts | 187° |
| 2026-05-04 20:57 | 37.33557 | -4.88427 | 25454 ft | 439 kts | 187° |
| 2026-05-04 20:58 | 37.30537 | -4.89031 | 24895 ft | 433 kts | 187° |
| 2026-05-04 20:58 | 37.27576 | -4.89622 | 24353 ft | 428 kts | 187° |
| 2026-05-04 20:58 | 37.24627 | -4.90209 | 23811 ft | 423 kts | 187° |
| 2026-05-04 20:58 | 37.21693 | -4.90793 | 23263 ft | 419 kts | 187° |
| 2026-05-04 20:59 | 37.18835 | -4.91361 | 22726 ft | 414 kts | 187° |
| 2026-05-04 20:59 | 37.15981 | -4.91927 | 22187 ft | 410 kts | 187° |
| 2026-05-04 20:59 | 37.13262 | -4.92467 | 21669 ft | 407 kts | 187° |
| 2026-05-04 20:59 | 37.10468 | -4.93022 | 21143 ft | 403 kts | 187° |
| 2026-05-04 21:00 | 37.07678 | -4.93503 | 20643 ft | 397 kts | 185° |
| 2026-05-04 21:00 | 37.04940 | -4.93764 | 20177 ft | 392 kts | 182° |
| 2026-05-04 21:00 | 37.02208 | -4.93806 | 19705 ft | 387 kts | 179° |
| 2026-05-04 21:00 | 36.99492 | -4.93681 | 19224 ft | 382 kts | 179° |
| 2026-05-04 21:01 | 36.96803 | -4.93540 | 18729 ft | 378 kts | 179° |
| 2026-05-04 21:01 | 36.94172 | -4.93404 | 18231 ft | 374 kts | 180° |
| 2026-05-04 21:01 | 36.91587 | -4.93276 | 17726 ft | 371 kts | 180° |
| 2026-05-04 21:01 | 36.89000 | -4.93146 | 17223 ft | 368 kts | 180° |
| 2026-05-04 21:02 | 36.86424 | -4.93016 | 16716 ft | 365 kts | 180° |
| 2026-05-04 21:02 | 36.83871 | -4.92887 | 16212 ft | 362 kts | 180° |
| 2026-05-04 21:02 | 36.81344 | -4.92758 | 15711 ft | 360 kts | 180° |
| 2026-05-04 21:02 | 36.78821 | -4.92629 | 15212 ft | 357 kts | 180° |
| 2026-05-04 21:03 | 36.76321 | -4.92500 | 14715 ft | 354 kts | 180° |
| 2026-05-04 21:03 | 36.73842 | -4.92373 | 14221 ft | 352 kts | 180° |
| 2026-05-04 21:03 | 36.71371 | -4.92247 | 13728 ft | 349 kts | 180° |
| 2026-05-04 21:03 | 36.68941 | -4.92122 | 13241 ft | 347 kts | 180° |
| 2026-05-04 21:04 | 36.66478 | -4.91995 | 12747 ft | 344 kts | 181° |
| 2026-05-04 21:04 | 36.64046 | -4.91871 | 12258 ft | 342 kts | 181° |
| 2026-05-04 21:04 | 36.61633 | -4.91747 | 11766 ft | 339 kts | 181° |
| 2026-05-04 21:04 | 36.59281 | -4.91625 | 11398 ft | 332 kts | 181° |
| 2026-05-04 21:05 | 36.56937 | -4.91505 | 10967 ft | 327 kts | 181° |
| 2026-05-04 21:05 | 36.54641 | -4.91387 | 10590 ft | 320 kts | 181° |
| 2026-05-04 21:05 | 36.52402 | -4.91271 | 10328 ft | 310 kts | 181° |
| 2026-05-04 21:05 | 36.50227 | -4.91158 | 10216 ft | 296 kts | 181° |
| 2026-05-04 21:06 | 36.48180 | -4.91052 | 10117 ft | 283 kts | 181° |
| 2026-05-04 21:06 | 36.46246 | -4.90949 | 10027 ft | 258 kts | 182° |
| 2026-05-04 21:06 | 36.44463 | -4.90855 | 9928 ft | 246 kts | 182° |
| 2026-05-04 21:06 | 36.42715 | -4.90767 | 9653 ft | 241 kts | 182° |
| 2026-05-04 21:07 | 36.41028 | -4.90683 | 9431 ft | 235 kts | 182° |
| 2026-05-04 21:07 | 36.39365 | -4.90599 | 9158 ft | 231 kts | 182° |
| 2026-05-04 21:07 | 36.37718 | -4.90516 | 8891 ft | 227 kts | 182° |
| 2026-05-04 21:07 | 36.36136 | -4.90436 | 8634 ft | 223 kts | 182° |
| 2026-05-04 21:08 | 36.34548 | -4.90355 | 8376 ft | 219 kts | 182° |
| 2026-05-04 21:08 | 36.33002 | -4.90275 | 8125 ft | 216 kts | 182° |
| 2026-05-04 21:08 | 36.31501 | -4.90198 | 7881 ft | 212 kts | 182° |
| 2026-05-04 21:08 | 36.30010 | -4.90122 | 7618 ft | 209 kts | 182° |
| 2026-05-04 21:09 | 36.28545 | -4.90047 | 7362 ft | 206 kts | 182° |
| 2026-05-04 21:09 | 36.27072 | -4.89971 | 7118 ft | 202 kts | 182° |
| 2026-05-04 21:09 | 36.25639 | -4.89898 | 6865 ft | 200 kts | 182° |
| 2026-05-04 21:09 | 36.24231 | -4.89826 | 6585 ft | 198 kts | 182° |
| 2026-05-04 21:10 | 36.22829 | -4.89755 | 6304 ft | 197 kts | 182° |
| 2026-05-04 21:10 | 36.21424 | -4.89683 | 6107 ft | 193 kts | 182° |
| 2026-05-04 21:10 | 36.20117 | -4.89613 | 5924 ft | 184 kts | 183° |
| 2026-05-04 21:10 | 36.18813 | -4.89546 | 5674 ft | 178 kts | 184° |
| 2026-05-04 21:11 | 36.17613 | -4.89740 | 5432 ft | 166 kts | 202° |
| 2026-05-04 21:11 | 36.16597 | -4.90387 | 5184 ft | 157 kts | 220° |
| 2026-05-04 21:11 | 36.15834 | -4.91348 | 4946 ft | 150 kts | 236° |
| 2026-05-04 21:11 | 36.15347 | -4.92531 | 4777 ft | 151 kts | 251° |
| 2026-05-04 21:12 | 36.15160 | -4.93856 | 4579 ft | 153 kts | 265° |
| 2026-05-04 21:12 | 36.15154 | -4.95187 | 4392 ft | 153 kts | 268° |
| 2026-05-04 21:12 | 36.15170 | -4.96532 | 4206 ft | 152 kts | 268° |
| 2026-05-04 21:12 | 36.15189 | -4.97874 | 4023 ft | 152 kts | 268° |
| 2026-05-04 21:13 | 36.15208 | -4.99231 | 3840 ft | 152 kts | 268° |
| 2026-05-04 21:13 | 36.15226 | -5.00544 | 3663 ft | 151 kts | 268° |
| 2026-05-04 21:13 | 36.15245 | -5.01886 | 3481 ft | 151 kts | 268° |
| 2026-05-04 21:13 | 36.15262 | -5.03177 | 3307 ft | 151 kts | 268° |
| 2026-05-04 21:14 | 36.15280 | -5.04529 | 3125 ft | 150 kts | 268° |
| 2026-05-04 21:14 | 36.15297 | -5.05835 | 2913 ft | 146 kts | 268° |
| 2026-05-04 21:14 | 36.15314 | -5.07069 | 2707 ft | 139 kts | 268° |
| 2026-05-04 21:14 | 36.15330 | -5.08265 | 2676 ft | 136 kts | 268° |
| 2026-05-04 21:15 | 36.15345 | -5.09467 | 2685 ft | 136 kts | 268° |
| 2026-05-04 21:15 | 36.15359 | -5.10665 | 2685 ft | 136 kts | 268° |
| 2026-05-04 21:15 | 36.15374 | -5.11866 | 2669 ft | 136 kts | 268° |
| 2026-05-04 21:15 | 36.15389 | -5.13059 | 2650 ft | 136 kts | 268° |
| 2026-05-04 21:16 | 36.15403 | -5.14269 | 2636 ft | 137 kts | 268° |
| 2026-05-04 21:16 | 36.15418 | -5.15458 | 2560 ft | 136 kts | 268° |
| 2026-05-04 21:16 | 36.15433 | -5.16627 | 2424 ft | 130 kts | 268° |
| 2026-05-04 21:16 | 36.15447 | -5.17768 | 2384 ft | 129 kts | 268° |
| 2026-05-04 21:17 | 36.15460 | -5.18910 | 2343 ft | 130 kts | 268° |
| 2026-05-04 21:17 | 36.15472 | -5.20040 | 2187 ft | 129 kts | 268° |
| 2026-05-04 21:17 | 36.15484 | -5.21186 | 1970 ft | 129 kts | 268° |
| 2026-05-04 21:17 | 36.15496 | -5.22315 | 1762 ft | 128 kts | 268° |
| 2026-05-04 21:18 | 36.15506 | -5.23447 | 1573 ft | 128 kts | 268° |
| 2026-05-04 21:18 | 36.15505 | -5.24566 | 1415 ft | 128 kts | 268° |
| 2026-05-04 21:18 | 36.15494 | -5.25693 | 1341 ft | 128 kts | 266° |
| 2026-05-04 21:18 | 36.15468 | -5.26825 | 1254 ft | 128 kts | 266° |
| 2026-05-04 21:19 | 36.15417 | -5.27942 | 1082 ft | 128 kts | 264° |
| 2026-05-04 21:19 | 36.15349 | -5.29062 | 854 ft | 127 kts | 264° |
| 2026-05-04 21:19 | 36.15287 | -5.30168 | 644 ft | 127 kts | 265° |
| 2026-05-04 21:19 | 36.15239 | -5.31294 | 439 ft | 127 kts | 266° |
| 2026-05-04 21:20 | 36.15202 | -5.32417 | 267 ft | 127 kts | 266° |
| 2026-05-04 21:20 | 36.15173 | -5.33519 | 94 ft | 126 kts | 266° |
| 2026-05-04 21:20 | 36.15138 | -5.34616 | 21 ft | 119 kts | 265° |
| 2026-05-04 21:20 | 36.15107 | -5.35373 | 9 ft | 60 kts | 268° |
| 2026-05-04 21:21 | 36.15084 | -5.35796 | 8 ft | 29 kts | 262° |
| 2026-05-04 21:21 | 36.15101 | -5.35895 | 9 ft | 12 kts | 84° |
| 2026-05-04 21:21 | 36.15105 | -5.35777 | 8 ft | 14 kts | 89° |
| 2026-05-04 21:21 | 36.15107 | -5.35641 | 8 ft | 19 kts | 88° |
| 2026-05-04 21:22 | 36.15111 | -5.35464 | 9 ft | 21 kts | 90° |
| 2026-05-04 21:22 | 36.15117 | -5.35269 | 12 ft | 21 kts | 88° |
| 2026-05-04 21:22 | 36.15122 | -5.35089 | 15 ft | 19 kts | 88° |
| 2026-05-04 21:22 | 36.15126 | -5.34953 | 15 ft | 19 kts | 88° |
| 2026-05-04 21:23 | 36.15129 | -5.34838 | 15 ft | 12 kts | 88° |
| 2026-05-04 21:23 | 36.15132 | -5.34754 | 15 ft | 13 kts | 84° |
| 2026-05-04 21:23 | 36.15190 | -5.34672 | 15 ft | 14 kts | 1° |
| 2026-05-04 21:23 | 36.15274 | -5.34713 | 15 ft | 9 kts | 351° |
| 2026-05-04 21:24 | 36.15297 | -5.34714 | 15 ft | 0 kts | 359° |